Flight Track Log - Related Links

Times and Time Zones

All times are in EDT time to prevent confusion due to time zone crossing. See the N131PT flight status page for this flight to view local times or setup timezone preferences in your user account.

Time Position Orientation Groundspeed Altitude Reporting Facility
EDT Latitude Longitude Course Direction KTS MPH feet Rate Location/Type
Wed 12:09:19 PM 38.8500 -76.0667 354° North 147 169 2,000  Level Potomac TRACON
Wed 12:10:02 PM 38.8853 -76.0717 354° North 148 170 3,100 1,515 Climbing Washington Center
Wed 12:11:02 PM 38.9247 -76.0800 351° North 154 177 4,600 1,488 Climbing Washington Center
Wed 12:12:03 PM 38.9561 -76.1014 332° Northwest 142 163 6,100 1,462 Climbing Washington Center
Wed 12:13:01 PM 38.9267 -76.1253 212° Southwest 67 77 7,500 1,424 Climbing Washington Center
Wed 12:14:01 PM 38.8892 -76.1464 204° Southwest 95 109 8,900 1,250 Climbing Washington Center
Wed 12:15:01 PM 38.8514 -76.1675 204° Southwest 144 166 10,000 545 Climbing Washington Center
Wed 12:16:02 PM 38.8075 -76.1936 205° Southwest 170 196 10,000 590 Level Washington Center
Wed 12:17:03 PM 38.7658 -76.2200 206° Southwest 178 205 11,200 992 Climbing Washington Center
Wed 12:18:03 PM 38.7281 -76.2411 204° Southwest 168 193 12,000 407 Climbing Washington Center
Wed 12:19:01 PM 38.6758 -76.2672 201° Southwest 174 200 12,000  Level Washington Center
Wed 12:20:02 PM 38.6278 -76.2958 205° Southwest 186 214 12,000  Level Washington Center
Wed 12:21:03 PM 38.5714 -76.3167 196° South 202 232 12,000  Level Washington Center
Wed 12:22:03 PM 38.5150 -76.3347 194° South 207 238 12,000  Level Washington Center
Wed 12:23:01 PM 38.4522 -76.3553 194° South 212 244 12,000  Level Washington Center
Wed 12:24:01 PM 38.3958 -76.3733 194° South 212 244 12,000  Level Washington Center
Wed 12:25:01 PM 38.3375 -76.3883 191° South 212 244 12,000  Level Washington Center
Wed 12:26:02 PM 38.2808 -76.4039 192° South 212 244 12,000  Level Washington Center
Wed 12:27:02 PM 38.2450 -76.4589 230° Southwest 202 232 12,000 149 Level Washington Center
Wed 12:28:03 PM 38.2094 -76.5061 226° Southwest 202 232 12,300 744 Climbing Washington Center
Wed 12:29:03 PM 38.1797 -76.5481 228° Southwest 185 213 13,500 857 Climbing Washington Center
Wed 12:30:02 PM 38.1503 -76.5897 228° Southwest 173 199 14,000 252 Climbing Washington Center
Wed 12:31:02 PM 38.1164 -76.6394 229° Southwest 173 199 14,000  Level Washington Center
Wed 12:32:03 PM 38.0806 -76.6892 228° Southwest 189 217 14,000  Level Washington Center
Wed 12:33:02 PM 38.0489 -76.7336 228° Southwest 194 223 14,000  Level Washington Center
Wed 12:34:02 PM 38.0131 -76.7831 227° Southwest 194 223 14,000  Level Washington Center
Wed 12:35:02 PM 37.9769 -76.8353 229° Southwest 194 223 14,000  Level Washington Center
Wed 12:36:03 PM 37.9514 -76.8928 241° Southwest 194 223 14,000  Level Washington Center
Wed 12:37:03 PM 37.9278 -76.9528 244° Southwest 194 223 14,000  Level Washington Center
Wed 12:38:01 PM 37.9061 -77.0131 246° West 189 217 14,000  Level Washington Center
Wed 12:39:01 PM 37.8825 -77.0731 244° Southwest 189 217 14,000  Level Washington Center
Wed 12:40:03 PM 37.8608 -77.1331 245° Southwest 194 223 14,000  Level Washington Center
Wed 12:41:03 PM 37.8392 -77.1931 245° Southwest 194 223 14,000  Level Washington Center
Wed 12:42:01 PM 37.8156 -77.2531 244° Southwest 194 223 14,000  Level Washington Center
Wed 12:43:02 PM 37.7939 -77.3106 245° Southwest 194 223 14,000  Level Washington Center
Wed 12:44:03 PM 37.7700 -77.3678 242° Southwest 194 223 14,000  Level Washington Center
Wed 12:45:03 PM 37.7483 -77.4275 245° Southwest 194 223 14,000 -202 Level Washington Center
Wed 12:46:02 PM 37.7244 -77.4928 245° Southwest 194 223 13,600 -800 Descending Washington Center
Wed 12:47:03 PM 37.7025 -77.5497 244° Southwest 194 223 12,400 -1,261 Descending Washington Center
Wed 12:48:01 PM 37.6786 -77.6147 245° Southwest 194 223 11,100 -1,119 Descending Washington Center
Wed 12:49:01 PM 37.6547 -77.6719 242° Southwest 194 223 10,200 -1,082 Descending Washington Center
Wed 12:50:03 PM 37.6328 -77.7317 245° Southwest 194 223 8,900 -1,082 Descending Washington Center
Wed 12:51:03 PM 37.6108 -77.7886 244° Southwest 192 221 8,000 -450 Descending Washington Center
Wed 12:52:03 PM 37.5889 -77.8456 244° Southwest 192 221 8,000  Level Washington Center
Wed 12:53:01 PM 37.5692 -77.8975 244° Southwest 187 215 8,000  Level Washington Center
Wed 12:54:01 PM 37.5472 -77.9544 244° Southwest 182 209 8,000  Level Washington Center
Wed 12:55:02 PM 37.5253 -78.0061 242° Southwest 182 209 8,000  Level Washington Center
Wed 12:56:03 PM 37.5033 -78.0606 243° Southwest 177 204 8,000  Level Washington Center
Wed 12:57:00 PM 37.4792 -78.1200 243° Southwest 177 204 8,000 -712 Level Washington Center
Wed 12:58:01 PM 37.4656 -78.1717 252° West 182 209 6,600 -1,426 Descending Washington Center
Wed 12:59:02 PM 37.4458 -78.2233 244° Southwest 175 201 5,100 -1,475 Descending Washington Center

Login

Don't have an account? Register now (free) for customized features, flight alerts, and more!